Terminal Aerodrome Forecast
Issued by NWS Cleveland, OH

Home | Current Version | Previous Version | Text Only | Print | Product List | Glossary On
Versions: 1 2 3 4 5 6 7 8 9 10 11 12 13 14 15 16 17 18 19 20 21
000
FTUS41 KCLE 230200 AAA
TAFTOL
TAF AMD
KTOL 230211Z 2302/2324 21010KT P6SM VCSH OVC035 WS020/21050KT
      TEMPO 2304/2307 6SM -SHRA
     FM230900 21010KT 5SM -SHRA OVC018
     FM231400 18012G20KT P6SM VCSH OVC030
     FM232100 12012KT 4SM -SHRA OVC015=

USA.gov is the U.S. government's official web portal to all federal, state and local government web resources and services.